Terminal Aerodrome Forecast
Issued by NWS Cleveland, OH

Home | Current Version | Previous Version | Graphics & Text | Print | Product List | Glossary On
Versions: 1 2 3 4 5 6 7 8 9 10 11 12 13 14 15 16 17 18 19 20 21 22 23
280
FTUS41 KCLE 162331
TAFERI
TAF
KERI 162331Z 1700/1724 24015G25KT P6SM OVC020
     FM170200 25015G25KT 6SM -SHSN OVC010
     FM171800 26017G27KT P6SM OVC020=

USA.gov is the U.S. government's official web portal to all federal, state and local government web resources and services.